Time;durP1;ratioP1;P1;durP2;ratioP2;P2;SDS_P1;SDS_P2;PMS_P1;PMS_P2;Temp;Humidity;BMP_temperature;BMP_pressure;BME280_temperature;BME280_humidity;BME280_pressure;Samples;Min_cycle;Max_cycle;Signal;HPM_P1;HPM_P2
2024/03/20 00:00:39;;;;;;;2.63;2.20;;;6.80;99.90;;;;;;5028800;28;20221;-75
2024/03/20 00:03:08;;;;;;;4.65;3.22;;;6.80;99.90;;;;;;5029210;28;20222;-75
2024/03/20 00:05:34;;;;;;;3.47;3.00;;;6.70;99.90;;;;;;5029853;28;20236;-75
2024/03/20 00:08:03;;;;;;;3.17;2.67;;;6.70;99.90;;;;;;5048913;28;20210;-75
2024/03/20 00:10:29;;;;;;;3.85;3.13;;;6.70;99.90;;;;;;5048262;28;20209;-75
2024/03/20 00:12:56;;;;;;;4.13;2.42;;;6.70;99.90;;;;;;5048689;28;20259;-74
2024/03/20 00:15:23;;;;;;;3.45;3.15;;;6.60;99.90;;;;;;5048596;28;20213;-75
2024/03/20 00:17:50;;;;;;;3.00;2.70;;;6.50;99.90;;;;;;5048883;28;20619;-75
2024/03/20 00:20:16;;;;;;;3.20;2.90;;;6.50;99.90;;;;;;5043138;28;20206;-75
2024/03/20 00:22:43;;;;;;;5.22;3.40;;;6.50;99.90;;;;;;5046393;28;20236;-75
2024/03/20 00:25:11;;;;;;;3.65;2.67;;;6.50;99.90;;;;;;5047413;28;20209;-75
2024/03/20 00:27:38;;;;;;;4.93;3.22;;;6.40;99.90;;;;;;5047930;28;20212;-75
2024/03/20 00:30:06;;;;;;;6.45;3.25;;;6.40;99.90;;;;;;5048793;28;20214;-75
2024/03/20 00:32:32;;;;;;;3.42;3.10;;;6.40;99.90;;;;;;5048113;28;20244;-75
2024/03/20 00:34:59;;;;;;;3.63;3.33;;;6.30;99.90;;;;;;5048536;28;20212;-75
2024/03/20 00:37:26;;;;;;;4.10;2.90;;;6.30;99.90;;;;;;5048471;28;20213;-75
2024/03/20 00:39:52;;;;;;;5.50;3.25;;;6.30;99.90;;;;;;5047897;28;20682;-75
2024/03/20 00:42:22;;;;;;;4.55;2.88;;;6.20;99.90;;;;;;5047893;28;20733;-75
2024/03/20 00:44:48;;;;;;;5.10;2.92;;;6.20;99.90;;;;;;5048344;28;20292;-75
2024/03/20 00:47:15;;;;;;;6.10;3.83;;;6.20;99.90;;;;;;5048210;28;20213;-75
2024/03/20 00:49:42;;;;;;;5.53;3.30;;;6.20;99.90;;;;;;5047365;28;20205;-75
2024/03/20 00:52:08;;;;;;;4.55;3.40;;;6.20;99.90;;;;;;5047917;28;20229;-75
2024/03/20 00:54:35;;;;;;;4.47;3.10;;;6.10;99.90;;;;;;5047952;28;20453;-75
2024/03/20 00:57:02;;;;;;;4.95;3.25;;;6.10;99.90;;;;;;5048409;28;20244;-75
2024/03/20 00:59:30;;;;;;;3.17;2.88;;;6.10;99.90;;;;;;5047575;28;20682;-75
2024/03/20 01:01:56;;;;;;;6.82;3.53;;;6.00;99.90;;;;;;5047656;28;20235;-75
2024/03/20 01:04:23;;;;;;;10.23;3.00;;;6.00;99.90;;;;;;5048322;28;20205;-75
2024/03/20 01:06:50;;;;;;;4.55;3.65;;;6.00;99.90;;;;;;5048528;28;20216;-75
2024/03/20 01:09:17;;;;;;;4.15;3.00;;;5.90;99.90;;;;;;5047805;28;20209;-75
2024/03/20 01:11:43;;;;;;;4.35;3.03;;;5.90;99.90;;;;;;5047722;28;20320;-75
2024/03/20 01:14:10;;;;;;;5.28;2.95;;;5.90;99.90;;;;;;5047731;28;20235;-75
2024/03/20 01:16:38;;;;;;;4.00;3.03;;;5.90;99.90;;;;;;5047835;28;20296;-75
2024/03/20 01:19:05;;;;;;;3.60;3.30;;;5.80;99.90;;;;;;5047836;28;20293;-75
2024/03/20 01:21:31;;;;;;;3.38;3.08;;;5.80;99.90;;;;;;5047410;28;20232;-75
2024/03/20 01:23:58;;;;;;;5.75;3.35;;;5.80;99.90;;;;;;5048012;28;20230;-75
2024/03/20 01:26:25;;;;;;;4.53;2.60;;;5.80;99.90;;;;;;5048259;28;20224;-75
2024/03/20 01:28:51;;;;;;;4.40;3.03;;;5.80;99.90;;;;;;5048011;28;20779;-75
2024/03/20 01:31:18;;;;;;;4.55;3.05;;;5.70;99.90;;;;;;5047371;28;20209;-75
2024/03/20 01:33:46;;;;;;;3.13;2.78;;;5.70;99.90;;;;;;5047671;28;20229;-75
2024/03/20 01:36:13;;;;;;;4.50;3.75;;;5.70;99.90;;;;;;5047874;28;20224;-75
2024/03/20 01:38:40;;;;;;;3.72;3.17;;;5.60;99.90;;;;;;5047781;28;20224;-74
2024/03/20 01:41:06;;;;;;;2.90;2.40;;;5.60;99.90;;;;;;5047432;28;20225;-75
2024/03/20 01:43:35;;;;;;;3.10;2.80;;;5.60;99.90;;;;;;5047352;28;20201;-75
2024/03/20 01:46:09;;;;;;;4.22;2.50;;;5.60;99.90;;;;;;5047725;28;20300;-75
2024/03/20 01:48:36;;;;;;;5.90;3.28;;;5.60;99.90;;;;;;5047750;28;20585;-75
2024/03/20 01:51:05;;;;;;;2.97;2.70;;;5.50;99.90;;;;;;5047394;28;20712;-75
2024/03/20 01:53:31;;;;;;;2.47;2.28;;;5.50;99.90;;;;;;5047159;28;20237;-75
2024/03/20 01:55:58;;;;;;;3.97;2.35;;;5.50;99.90;;;;;;5047622;28;20236;-75
2024/03/20 01:58:25;;;;;;;3.00;2.63;;;5.50;99.90;;;;;;5039547;28;20209;-75
2024/03/20 02:00:51;;;;;;;2.30;2.10;;;5.50;99.90;;;;;;5047339;28;20988;-75
2024/03/20 02:03:19;;;;;;;3.95;2.55;;;5.40;99.90;;;;;;5050716;28;20225;-75
2024/03/20 02:05:45;;;;;;;3.10;2.80;;;5.40;99.90;;;;;;5051255;28;20209;-75
2024/03/20 02:08:13;;;;;;;5.10;2.80;;;5.40;99.90;;;;;;5053544;28;20213;-75
2024/03/20 02:10:40;;;;;;;2.65;2.42;;;5.40;99.90;;;;;;5054024;28;20213;-75
2024/03/20 02:13:07;;;;;;;3.05;2.75;;;5.40;99.90;;;;;;5053971;28;20225;-75
2024/03/20 02:15:36;;;;;;;2.75;2.55;;;5.40;99.90;;;;;;5053947;28;20209;-75
2024/03/20 02:18:02;;;;;;;3.60;2.35;;;5.40;99.90;;;;;;5054262;28;20212;-74
2024/03/20 02:20:29;;;;;;;3.53;2.33;;;5.30;99.90;;;;;;5053787;28;20690;-75
2024/03/20 02:22:59;;;;;;;3.10;2.42;;;5.30;99.90;;;;;;5053188;28;20225;-75
2024/03/20 02:25:28;;;;;;;3.80;2.45;;;5.30;99.90;;;;;;5053079;28;20296;-75
2024/03/20 02:27:55;;;;;;;3.33;2.50;;;5.30;99.90;;;;;;5053318;28;20213;-75
2024/03/20 02:30:22;;;;;;;2.85;2.25;;;5.30;99.90;;;;;;5053476;28;20209;-75
2024/03/20 02:32:48;;;;;;;3.90;2.28;;;5.20;99.90;;;;;;5053314;28;20229;-75
2024/03/20 02:35:15;;;;;;;3.47;2.45;;;5.20;99.90;;;;;;5053568;28;20228;-75
2024/03/20 02:37:42;;;;;;;3.90;3.60;;;5.20;99.90;;;;;;5036923;28;20210;-75
2024/03/20 02:40:10;;;;;;;3.08;2.60;;;5.20;99.90;;;;;;5053580;28;20209;-75
2024/03/20 02:42:37;;;;;;;3.15;2.42;;;5.10;99.90;;;;;;5053218;28;20743;-75
2024/03/20 02:45:04;;;;;;;3.45;2.47;;;5.10;99.90;;;;;;5053667;28;20201;-75
2024/03/20 02:47:31;;;;;;;3.35;3.05;;;5.10;99.90;;;;;;5053448;28;20205;-75
2024/03/20 02:49:58;;;;;;;4.22;3.00;;;5.10;99.90;;;;;;5053325;28;20586;-75
2024/03/20 02:52:24;;;;;;;3.80;3.45;;;5.10;99.90;;;;;;5053070;28;20329;-75
2024/03/20 02:54:51;;;;;;;4.00;2.70;;;5.10;99.90;;;;;;5053384;28;20232;-75
2024/03/20 02:57:19;;;;;;;3.80;3.15;;;5.10;99.90;;;;;;5053312;28;20204;-75
2024/03/20 02:59:46;;;;;;;4.35;3.50;;;5.00;99.90;;;;;;5053018;28;20209;-75
2024/03/20 03:02:13;;;;;;;3.47;2.75;;;5.00;99.90;;;;;;5052879;28;20264;-75
2024/03/20 03:04:40;;;;;;;4.85;3.17;;;5.00;99.90;;;;;;5053200;28;20197;-75
2024/03/20 03:07:07;;;;;;;3.70;2.60;;;5.10;99.90;;;;;;5053241;28;20212;-75
2024/03/20 03:09:33;;;;;;;4.03;3.22;;;5.00;99.90;;;;;;5052702;28;20213;-75
2024/03/20 03:12:02;;;;;;;3.45;3.15;;;5.00;99.90;;;;;;5052765;28;20225;-75
2024/03/20 03:14:30;;;;;;;3.47;2.45;;;5.00;99.90;;;;;;5052365;28;20729;-75
2024/03/20 03:16:56;;;;;;;4.55;3.20;;;5.00;99.90;;;;;;5052937;28;20209;-75
2024/03/20 03:19:23;;;;;;;3.03;2.58;;;5.00;99.90;;;;;;5052832;28;20201;-75
2024/03/20 03:21:50;;;;;;;3.35;3.03;;;5.00;99.90;;;;;;5052326;28;20596;-75
2024/03/20 03:24:17;;;;;;;3.00;2.70;;;4.90;99.90;;;;;;5052797;28;20739;-75
2024/03/20 03:26:45;;;;;;;3.20;2.75;;;4.90;99.90;;;;;;5052898;28;20632;-75
2024/03/20 03:29:11;;;;;;;3.92;2.70;;;4.90;99.90;;;;;;5052706;28;20201;-75
2024/03/20 03:31:39;;;;;;;3.50;2.95;;;4.90;99.90;;;;;;5052563;28;20248;-75
2024/03/20 03:34:06;;;;;;;3.00;2.80;;;4.80;99.90;;;;;;5052608;28;20236;-75
2024/03/20 03:36:34;;;;;;;4.10;3.70;;;4.80;99.90;;;;;;5052496;28;20274;-75
2024/03/20 03:39:00;;;;;;;3.22;2.80;;;4.80;99.90;;;;;;5052657;28;20266;-75
2024/03/20 03:41:27;;;;;;;3.13;2.55;;;4.70;99.90;;;;;;5052000;28;20595;-75
2024/03/20 03:43:54;;;;;;;3.65;3.35;;;4.80;99.90;;;;;;5052402;28;20211;-75
2024/03/20 03:46:20;;;;;;;3.53;2.78;;;4.80;99.90;;;;;;5052388;28;20604;-75
2024/03/20 03:48:49;;;;;;;4.35;2.50;;;4.70;99.90;;;;;;5052341;28;20208;-75
2024/03/20 03:51:16;;;;;;;3.70;2.55;;;4.80;99.90;;;;;;5051766;28;20252;-74
2024/03/20 03:53:42;;;;;;;2.95;2.70;;;4.70;99.90;;;;;;5033917;28;20208;-74
2024/03/20 03:56:09;;;;;;;3.10;2.42;;;4.70;99.90;;;;;;5029088;28;20590;-74
2024/03/20 03:58:36;;;;;;;3.75;3.10;;;4.70;99.90;;;;;;5026470;28;20224;-76
2024/03/20 04:01:03;;;;;;;2.58;2.20;;;4.70;99.90;;;;;;5024077;28;20566;-75
2024/03/20 04:03:29;;;;;;;3.00;2.20;;;4.70;99.90;;;;;;5026883;28;20232;-75
2024/03/20 04:06:00;;;;;;;3.63;3.10;;;4.70;99.90;;;;;;5026315;28;20201;-75
2024/03/20 04:08:27;;;;;;;3.22;2.47;;;4.70;99.90;;;;;;5031439;28;20663;-74
2024/03/20 04:10:54;;;;;;;3.40;3.08;;;4.70;99.90;;;;;;5031225;28;20201;-75
2024/03/20 04:13:20;;;;;;;2.50;2.30;;;4.70;99.90;;;;;;5031233;28;20241;-74
2024/03/20 04:15:47;;;;;;;3.47;3.03;;;4.70;99.90;;;;;;5031344;28;20228;-74
2024/03/20 04:18:17;;;;;;;3.53;2.33;;;4.70;99.90;;;;;;5031285;28;20573;-75
2024/03/20 04:20:44;;;;;;;2.70;2.50;;;4.60;99.90;;;;;;5030937;28;20693;-74
2024/03/20 04:23:12;;;;;;;3.10;2.80;;;4.60;99.90;;;;;;5030980;28;20222;-74
2024/03/20 04:25:39;;;;;;;3.25;2.85;;;4.60;99.90;;;;;;5027494;28;20195;-74
2024/03/20 04:28:07;;;;;;;3.13;2.80;;;4.60;99.90;;;;;;5023750;28;20609;-75
2024/03/20 04:30:34;;;;;;;4.90;2.47;;;4.60;99.90;;;;;;5025704;28;20205;-75
2024/03/20 04:33:00;;;;;;;5.50;3.00;;;4.50;99.90;;;;;;5022683;28;20226;-75
2024/03/20 04:35:27;;;;;;;4.72;2.80;;;4.50;99.90;;;;;;5025623;28;20269;-73
2024/03/20 04:37:54;;;;;;;2.65;2.45;;;4.50;99.90;;;;;;5031203;28;20209;-73
2024/03/20 04:40:22;;;;;;;2.60;2.22;;;4.50;99.90;;;;;;5031082;28;20205;-73
2024/03/20 04:42:49;;;;;;;4.78;2.35;;;4.50;99.90;;;;;;5030889;28;20222;-74
2024/03/20 04:45:15;;;;;;;5.78;2.85;;;4.50;99.90;;;;;;5031586;28;20705;-74
2024/03/20 04:47:42;;;;;;;3.10;2.40;;;4.50;99.90;;;;;;5031531;28;20217;-73
2024/03/20 04:50:12;;;;;;;3.38;2.20;;;4.40;99.90;;;;;;5030799;28;20212;-73
2024/03/20 04:52:39;;;;;;;2.90;2.70;;;4.50;99.90;;;;;;5030833;28;20233;-73
2024/03/20 04:55:06;;;;;;;3.92;3.13;;;4.40;99.90;;;;;;5031051;28;20252;-73
2024/03/20 04:57:34;;;;;;;2.75;2.55;;;4.40;99.90;;;;;;5031552;28;20213;-73
2024/03/20 05:00:01;;;;;;;3.45;2.83;;;4.40;99.90;;;;;;5031012;28;20204;-74
2024/03/20 05:02:28;;;;;;;3.35;2.40;;;4.30;99.90;;;;;;5031150;28;20268;-73
2024/03/20 05:04:55;;;;;;;2.83;2.33;;;4.30;99.90;;;;;;5031237;28;20201;-73
2024/03/20 05:07:22;;;;;;;3.10;2.80;;;4.30;99.90;;;;;;5031567;28;20266;-73
2024/03/20 05:09:49;;;;;;;2.45;2.25;;;4.30;99.90;;;;;;5030789;28;20213;-73
2024/03/20 05:12:15;;;;;;;4.32;2.83;;;4.30;99.90;;;;;;5030742;28;20310;-73
2024/03/20 05:14:43;;;;;;;4.50;2.80;;;4.30;99.90;;;;;;5032681;28;20229;-73
2024/03/20 05:17:09;;;;;;;2.60;2.38;;;4.30;99.90;;;;;;5032895;28;20217;-73
2024/03/20 05:19:36;;;;;;;3.65;2.60;;;4.30;99.90;;;;;;5030880;28;20210;-73
2024/03/20 05:22:03;;;;;;;2.95;2.65;;;4.30;99.90;;;;;;5030781;28;20613;-73
2024/03/20 05:24:29;;;;;;;5.32;3.15;;;4.30;99.90;;;;;;5031026;28;21550;-73
2024/03/20 05:26:56;;;;;;;2.80;2.50;;;4.30;99.90;;;;;;5031048;28;20236;-73
2024/03/20 05:29:22;;;;;;;4.53;2.67;;;4.20;99.90;;;;;;5030740;28;20216;-73
2024/03/20 05:31:50;;;;;;;2.78;2.55;;;4.20;99.90;;;;;;5030379;28;20221;-73
2024/03/20 05:34:15;;;;;;;4.85;2.80;;;4.20;99.90;;;;;;5030718;28;20213;-75
2024/03/20 05:36:42;;;;;;;3.70;2.83;;;4.20;99.90;;;;;;5034740;28;20209;-73
2024/03/20 05:39:11;;;;;;;3.33;2.88;;;4.20;99.90;;;;;;5034755;28;20232;-73
2024/03/20 05:41:38;;;;;;;3.35;2.95;;;4.20;99.90;;;;;;5034157;28;20710;-73
2024/03/20 05:44:05;;;;;;;2.83;2.55;;;4.20;99.90;;;;;;5034782;28;20205;-73
2024/03/20 05:46:32;;;;;;;2.95;2.58;;;4.20;99.90;;;;;;5034731;28;20666;-74
2024/03/20 05:48:59;;;;;;;2.05;1.85;;;4.20;99.90;;;;;;5034779;28;20534;-73
2024/03/20 05:51:26;;;;;;;3.65;3.13;;;4.20;99.90;;;;;;5034387;28;20285;-73
2024/03/20 05:53:51;;;;;;;3.50;2.72;;;4.20;99.90;;;;;;5034723;28;20225;-73
2024/03/20 05:56:18;;;;;;;3.47;2.70;;;4.20;99.90;;;;;;5034872;28;20601;-73
2024/03/20 05:58:44;;;;;;;4.03;3.15;;;4.30;99.90;;;;;;5034458;28;20236;-73
2024/03/20 06:01:11;;;;;;;3.53;2.60;;;4.30;99.90;;;;;;5033725;28;20232;-73
2024/03/20 06:03:37;;;;;;;4.03;3.05;;;4.40;99.90;;;;;;5033908;28;20641;-73
2024/03/20 06:06:06;;;;;;;3.40;3.10;;;4.40;99.90;;;;;;5034396;28;20202;-73
2024/03/20 06:08:32;;;;;;;4.95;3.83;;;4.50;99.90;;;;;;5034100;28;20255;-73
2024/03/20 06:11:01;;;;;;;3.60;3.17;;;4.50;99.90;;;;;;5034010;28;20593;-73
2024/03/20 06:13:27;;;;;;;3.17;2.40;;;4.60;99.90;;;;;;5033969;28;20587;-73
2024/03/20 06:15:54;;;;;;;3.33;3.00;;;4.60;99.90;;;;;;5034186;28;20292;-74
2024/03/20 06:18:20;;;;;;;3.22;2.92;;;4.70;99.90;;;;;;5034124;28;20209;-73
2024/03/20 06:20:46;;;;;;;5.10;3.90;;;4.80;99.90;;;;;;5033700;28;20206;-73
2024/03/20 06:23:14;;;;;;;3.67;3.38;;;4.80;99.90;;;;;;5033948;28;20241;-74
2024/03/20 06:25:40;;;;;;;4.00;3.53;;;4.90;99.90;;;;;;5033859;28;20284;-74
2024/03/20 06:28:06;;;;;;;3.10;2.80;;;5.00;99.90;;;;;;5034011;28;20216;-74
2024/03/20 06:30:33;;;;;;;3.57;3.23;;;5.10;99.90;;;;;;5033632;28;20566;-74
2024/03/20 06:33:00;;;;;;;4.18;3.28;;;5.20;99.90;;;;;;5033683;28;20233;-74
2024/03/20 06:35:28;;;;;;;4.32;2.92;;;5.30;99.90;;;;;;5033205;28;20719;-74
2024/03/20 06:37:54;;;;;;;3.20;2.75;;;5.40;99.90;;;;;;5033724;28;20293;-74
2024/03/20 06:40:25;;;;;;;3.47;3.13;;;5.50;99.90;;;;;;5033382;28;20210;-74
2024/03/20 06:42:51;;;;;;;3.42;3.13;;;5.60;99.90;;;;;;5033850;28;20312;-74
2024/03/20 06:45:19;;;;;;;3.70;3.40;;;5.70;99.90;;;;;;5034262;28;20289;-74
2024/03/20 06:47:46;;;;;;;5.95;4.70;;;5.80;99.90;;;;;;5033391;28;20693;-74
2024/03/20 06:50:12;;;;;;;4.82;4.35;;;6.00;99.90;;;;;;5033145;28;20202;-74
2024/03/20 06:52:39;;;;;;;6.28;4.57;;;6.10;99.90;;;;;;5033185;28;20230;-75
2024/03/20 06:55:07;;;;;;;5.35;3.90;;;6.20;99.90;;;;;;5033682;28;20222;-74
2024/03/20 06:57:36;;;;;;;7.50;4.80;;;6.40;99.90;;;;;;5034599;28;20655;-78
2024/03/20 07:00:06;;;;;;;5.75;3.47;;;6.50;99.90;;;;;;5038363;28;20206;-78
2024/03/20 07:02:33;;;;;;;6.32;4.28;;;6.60;99.90;;;;;;5037494;28;20221;-77
2024/03/20 07:04:59;;;;;;;4.97;4.18;;;6.80;99.90;;;;;;5039304;28;20205;-76
2024/03/20 07:07:26;;;;;;;3.97;3.57;;;7.00;99.90;;;;;;5045632;28;20206;-77
2024/03/20 07:09:51;;;;;;;6.72;4.35;;;7.20;99.90;;;;;;5037958;28;20762;-76
2024/03/20 07:12:18;;;;;;;6.70;4.20;;;7.40;99.90;;;;;;5033606;28;20335;-76
2024/03/20 07:14:45;;;;;;;9.00;3.83;;;7.70;99.90;;;;;;5034023;28;20230;-76
2024/03/20 07:17:14;;;;;;;3.88;3.50;;;8.10;99.90;;;;;;5033467;28;20303;-77
2024/03/20 07:19:40;;;;;;;4.13;3.72;;;8.50;99.90;;;;;;5032688;28;20223;-76
2024/03/20 07:22:07;;;;;;;5.60;4.50;;;8.90;99.90;;;;;;5033666;28;20613;-75
2024/03/20 07:24:33;;;;;;;5.60;4.20;;;9.30;99.90;;;;;;5032743;28;20678;-74
2024/03/20 07:27:00;;;;;;;5.40;3.87;;;9.70;99.90;;;;;;5033092;28;20208;-74
2024/03/20 07:29:27;;;;;;;4.97;3.78;;;10.20;99.90;;;;;;5032773;28;20206;-74
2024/03/20 07:31:54;;;;;;;5.28;4.40;;;10.60;99.90;;;;;;5032161;28;20226;-74
2024/03/20 07:34:21;;;;;;;5.00;3.83;;;11.20;99.90;;;;;;5032735;28;20213;-74
2024/03/20 07:36:47;;;;;;;4.55;3.95;;;11.80;99.90;;;;;;5032702;28;20240;-75
2024/03/20 07:39:13;;;;;;;4.73;4.23;;;12.40;99.90;;;;;;5032896;28;20202;-75
2024/03/20 07:41:39;;;;;;;5.93;3.90;;;13.10;99.90;;;;;;5031922;28;20598;-75
2024/03/20 07:44:06;;;;;;;5.10;3.63;;;13.70;99.90;;;;;;5032676;28;20212;-75
2024/03/20 07:46:31;;;;;;;3.93;3.40;;;14.20;99.90;;;;;;5032503;28;20225;-75
2024/03/20 07:48:59;;;;;;;4.50;3.07;;;14.70;99.90;;;;;;5032422;28;20472;-75
2024/03/20 07:51:25;;;;;;;2.60;2.40;;;15.10;99.90;;;;;;5031894;28;20232;-74
2024/03/20 07:53:52;;;;;;;2.07;1.87;;;15.20;99.90;;;;;;5031978;28;20962;-74
2024/03/20 07:56:18;;;;;;;2.90;2.50;;;15.50;99.90;;;;;;5032412;28;20229;-74
2024/03/20 07:58:44;;;;;;;4.40;2.10;;;15.90;99.90;;;;;;5031992;28;20464;-74
2024/03/20 08:01:11;;;;;;;2.37;1.80;;;16.10;99.90;;;;;;5031930;28;20209;-74
2024/03/20 08:03:39;;;;;;;1.93;1.80;;;16.60;99.90;;;;;;5031712;28;20954;-75
2024/03/20 08:06:06;;;;;;;2.27;2.07;;;16.90;99.90;;;;;;5032198;28;20934;-74
2024/03/20 08:08:32;;;;;;;2.90;2.00;;;17.10;99.90;;;;;;5031912;28;21019;-74
2024/03/20 08:10:58;;;;;;;1.90;1.70;;;17.00;99.90;;;;;;5032035;28;20465;-74
2024/03/20 08:13:25;;;;;;;3.27;2.03;;;17.50;99.90;;;;;;5031769;28;20515;-74
2024/03/20 08:15:51;;;;;;;2.17;1.97;;;18.00;99.90;;;;;;5031982;28;20228;-74
2024/03/20 08:18:17;;;;;;;1.97;1.70;;;18.30;99.90;;;;;;5032051;28;20468;-74
2024/03/20 08:20:43;;;;;;;2.50;1.93;;;18.70;99.90;;;;;;5031464;28;20206;-74
2024/03/20 08:23:11;;;;;;;1.90;1.67;;;18.80;99.90;;;;;;5031583;28;20495;-74
2024/03/20 08:25:37;;;;;;;1.93;1.67;;;19.40;99.90;;;;;;5031813;28;20254;-74
2024/03/20 08:28:06;;;;;;;2.17;1.90;;;20.30;99.90;;;;;;5031984;28;20468;-74
2024/03/20 08:30:32;;;;;;;2.83;1.43;;;21.00;99.90;;;;;;5031357;28;20209;-74
2024/03/20 08:32:59;;;;;;;3.00;1.93;;;21.20;99.80;;;;;;5031405;28;20488;-74
2024/03/20 08:35:25;;;;;;;1.43;1.33;;;21.20;98.30;;;;;;5031811;28;20237;-74
2024/03/20 08:37:52;;;;;;;2.23;2.00;;;21.00;98.00;;;;;;5031357;28;20499;-75
2024/03/20 08:40:19;;;;;;;1.73;1.63;;;21.10;97.70;;;;;;5032901;28;20215;-77
2024/03/20 08:42:46;;;;;;;1.60;1.43;;;21.20;98.20;;;;;;5032159;28;20488;-77
2024/03/20 08:45:13;;;;;;;1.73;1.57;;;21.30;97.40;;;;;;5031718;28;20985;-76
2024/03/20 08:47:40;;;;;;;1.83;1.63;;;20.80;97.90;;;;;;5031997;28;20837;-75
2024/03/20 08:50:08;;;;;;;1.77;1.33;;;21.20;97.10;;;;;;5031185;28;20985;-75
2024/03/20 08:52:35;;;;;;;2.17;1.97;;;20.90;96.70;;;;;;5031009;28;20524;-75
2024/03/20 08:55:01;;;;;;;2.63;1.50;;;20.90;96.20;;;;;;5031126;28;20473;-75
2024/03/20 08:57:29;;;;;;;1.60;1.47;;;20.30;96.60;;;;;;5031344;28;20476;-75
2024/03/20 08:59:55;;;;;;;2.40;1.57;;;20.70;96.90;;;;;;5030904;28;20217;-75
2024/03/20 09:02:22;;;;;;;2.37;2.00;;;21.10;97.40;;;;;;5030996;28;20480;-74
2024/03/20 09:04:47;;;;;;;1.70;1.60;;;21.70;96.40;;;;;;5030917;28;20654;-75
2024/03/20 09:07:14;;;;;;;1.73;1.63;;;22.00;96.10;;;;;;5031188;28;20464;-75
2024/03/20 09:09:40;;;;;;;1.70;1.60;;;22.40;96.00;;;;;;5030796;28;20221;-75
2024/03/20 09:12:07;;;;;;;1.87;1.67;;;22.70;96.00;;;;;;5030612;28;20484;-76
2024/03/20 09:14:35;;;;;;;1.70;1.33;;;22.40;95.90;;;;;;5031141;28;20465;-76
2024/03/20 09:17:01;;;;;;;1.67;1.47;;;22.40;95.70;;;;;;5031151;28;20492;-76
2024/03/20 09:19:27;;;;;;;2.17;1.87;;;22.70;96.70;;;;;;5031129;28;20464;-75
2024/03/20 09:21:54;;;;;;;2.73;1.70;;;23.10;97.10;;;;;;5030199;28;20487;-76
2024/03/20 09:24:22;;;;;;;1.60;1.50;;;23.70;95.70;;;;;;5031198;28;20209;-76
2024/03/20 09:26:50;;;;;;;2.13;1.80;;;24.10;95.70;;;;;;5030746;28;20986;-76
2024/03/20 09:29:16;;;;;;;3.50;1.90;;;24.90;94.50;;;;;;5030939;28;20954;-73
2024/03/20 09:31:44;;;;;;;2.13;1.93;;;25.00;94.70;;;;;;5030253;28;20534;-73
2024/03/20 09:34:10;;;;;;;2.13;1.93;;;25.40;95.20;;;;;;5030946;28;20484;-73
2024/03/20 09:36:36;;;;;;;2.00;1.80;;;25.60;94.10;;;;;;5030804;28;20527;-73
2024/03/20 09:39:03;;;;;;;1.93;1.70;;;25.80;94.00;;;;;;5031006;28;20621;-73
2024/03/20 09:41:31;;;;;;;1.93;1.53;;;26.10;93.00;;;;;;5030544;28;20481;-73
2024/03/20 09:43:58;;;;;;;2.20;2.00;;;26.20;93.60;;;;;;5030728;28;20845;-72
2024/03/20 09:46:26;;;;;;;2.30;2.00;;;26.30;93.60;;;;;;5030931;28;20456;-73
2024/03/20 09:48:53;;;;;;;1.87;1.60;;;26.30;92.90;;;;;;5030263;28;20471;-73
2024/03/20 09:51:21;;;;;;;2.30;2.03;;;26.70;92.90;;;;;;5029770;28;20492;-73
2024/03/20 09:53:49;;;;;;;1.70;1.50;;;27.00;92.40;;;;;;5030478;28;20464;-73
2024/03/20 09:56:17;;;;;;;2.43;2.23;;;27.30;92.90;;;;;;5030742;28;20491;-73
2024/03/20 09:58:43;;;;;;;2.77;2.57;;;27.60;92.70;;;;;;5030496;28;20945;-73
2024/03/20 10:01:13;;;;;;;2.83;2.40;;;27.80;92.10;;;;;;5030329;28;20467;-73
2024/03/20 10:03:39;;;;;;;2.00;1.80;;;27.90;91.80;;;;;;5030852;28;20210;-74
2024/03/20 10:06:08;;;;;;;4.67;2.23;;;28.00;91.50;;;;;;5031654;28;20464;-73
2024/03/20 10:08:37;;;;;;;3.10;2.70;;;28.00;91.60;;;;;;5030668;28;20463;-73
2024/03/20 10:11:04;;;;;;;2.10;1.90;;;27.90;90.10;;;;;;5030050;28;20467;-73
2024/03/20 10:13:30;;;;;;;3.03;2.30;;;27.60;92.10;;;;;;5030473;28;20901;-73
2024/03/20 10:16:05;;;;;;;2.10;1.90;;;27.70;92.10;;;;;;5030693;28;20510;-73
2024/03/20 10:18:31;;;;;;;4.10;2.27;;;27.30;91.10;;;;;;5030596;28;20523;-72
2024/03/20 10:20:58;;;;;;;2.70;2.50;;;26.70;91.30;;;;;;5030331;28;20468;-73
2024/03/20 10:23:25;;;;;;;2.60;2.30;;;26.70;91.80;;;;;;5031949;28;20277;-73
2024/03/20 10:25:52;;;;;;;2.83;2.30;;;26.60;91.90;;;;;;5033872;28;20563;-73
2024/03/20 10:28:20;;;;;;;3.57;2.43;;;26.70;91.50;;;;;;5034093;28;20849;-73
2024/03/20 10:30:51;;;;;;;2.50;2.20;;;26.50;92.80;;;;;;5033703;28;20886;-73
2024/03/20 10:33:18;;;;;;;2.60;2.40;;;26.50;92.20;;;;;;5033775;28;20865;-73
2024/03/20 10:35:51;;;;;;;2.43;2.23;;;26.50;91.90;;;;;;5033753;28;20488;-73
2024/03/20 10:38:18;;;;;;;2.70;2.50;;;26.90;91.30;;;;;;5034152;28;20944;-73
2024/03/20 10:40:49;;;;;;;2.43;2.23;;;27.30;91.40;;;;;;5033347;28;20464;-73
2024/03/20 10:43:19;;;;;;;2.37;2.17;;;27.60;90.70;;;;;;5033452;28;20488;-73
2024/03/20 10:45:47;;;;;;;2.23;2.00;;;28.00;90.60;;;;;;5033766;28;20518;-75
2024/03/20 10:48:15;;;;;;;2.10;1.90;;;28.00;88.60;;;;;;5033679;28;20465;-76
2024/03/20 10:50:46;;;;;;;2.30;2.10;;;28.00;87.50;;;;;;5033451;28;20785;-76
2024/03/20 10:53:12;;;;;;;2.67;2.47;;;27.80;89.40;;;;;;5033677;28;20480;-76
2024/03/20 10:55:39;;;;;;;1.93;1.60;;;28.10;88.90;;;;;;5033402;28;20495;-73
2024/03/20 10:58:06;;;;;;;2.27;2.07;;;28.10;87.40;;;;;;5033402;28;20456;-74
2024/03/20 11:00:34;;;;;;;1.63;1.53;;;28.10;86.60;;;;;;5033182;28;20464;-73
2024/03/20 11:03:39;;;;;;;1.80;1.70;;;28.30;89.40;;;;;;5032961;28;20523;-74
2024/03/20 11:06:39;;;;;;;2.23;2.00;;;28.60;88.00;;;;;;5033365;28;20867;-73
2024/03/20 11:09:23;;;;;;;1.70;1.60;;;29.00;87.50;;;;;;5033506;28;20990;-73
2024/03/20 11:11:52;;;;;;;1.53;1.43;;;29.00;88.40;;;;;;5032495;28;20571;-73
2024/03/20 11:14:29;;;;;;;2.70;1.70;;;28.80;88.00;;;;;;5033339;28;20467;-74
2024/03/20 11:17:02;;;;;;;2.73;1.70;;;28.80;85.50;;;;;;5032843;28;21036;-73
2024/03/20 11:19:28;;;;;;;2.20;1.90;;;28.90;86.10;;;;;;5032738;28;20469;-73
2024/03/20 11:21:55;;;;;;;1.50;1.40;;;28.80;85.50;;;;;;5031308;28;21087;-73
2024/03/20 11:24:21;;;;;;;1.57;1.47;;;28.70;85.20;;;;;;5032095;28;20279;-74
2024/03/20 11:26:49;;;;;;;2.17;1.40;;;28.50;85.80;;;;;;5032544;28;20487;-73
2024/03/20 11:29:14;;;;;;;2.00;1.80;;;28.30;87.90;;;;;;5032468;28;20457;-73
2024/03/20 11:31:43;;;;;;;2.03;1.40;;;28.20;86.70;;;;;;5032357;28;20495;-73
2024/03/20 11:34:08;;;;;;;1.67;1.57;;;28.10;85.20;;;;;;5032731;28;20206;-76
2024/03/20 11:36:36;;;;;;;2.00;1.83;;;27.80;84.80;;;;;;5033229;28;20848;-76
2024/03/20 11:39:07;;;;;;;1.50;1.40;;;27.50;85.30;;;;;;5036204;28;20212;-76
2024/03/20 11:41:34;;;;;;;1.50;1.37;;;27.10;88.90;;;;;;5032831;28;20487;-76
2024/03/20 11:44:00;;;;;;;1.67;1.57;;;26.90;87.40;;;;;;5032934;28;20562;-76
2024/03/20 11:46:27;;;;;;;2.10;1.70;;;26.70;86.50;;;;;;5033065;28;20461;-73
2024/03/20 11:48:55;;;;;;;1.70;1.30;;;26.00;86.20;;;;;;5032424;28;20240;-73
2024/03/20 11:51:25;;;;;;;1.60;1.50;;;25.70;86.10;;;;;;5031986;28;20504;-74
2024/03/20 11:53:53;;;;;;;1.60;1.40;;;25.80;86.40;;;;;;5032223;28;20476;-73
2024/03/20 11:56:21;;;;;;;1.97;1.60;;;26.00;85.50;;;;;;5032393;28;20484;-73
2024/03/20 11:58:49;;;;;;;1.40;1.27;;;25.70;87.60;;;;;;5032194;28;20851;-73
2024/03/20 12:01:17;;;;;;;1.93;1.47;;;25.60;88.30;;;;;;5031683;28;20460;-73
2024/03/20 12:03:47;;;;;;;1.30;1.20;;;25.80;87.50;;;;;;5032205;28;20834;-73
2024/03/20 12:06:16;;;;;;;1.30;1.20;;;26.30;88.60;;;;;;5032132;28;20460;-73
2024/03/20 12:08:44;;;;;;;1.50;1.40;;;26.60;87.40;;;;;;5032076;28;20468;-73
2024/03/20 12:11:23;;;;;;;3.17;1.40;;;26.50;88.10;;;;;;5031594;28;20464;-73
2024/03/20 12:13:52;;;;;;;2.00;1.30;;;26.70;87.30;;;;;;5032095;28;20873;-73
2024/03/20 12:16:18;;;;;;;1.80;1.60;;;26.70;85.90;;;;;;5031862;28;20834;-73
2024/03/20 12:18:45;;;;;;;1.37;1.23;;;26.70;86.10;;;;;;5031894;28;20471;-74
2024/03/20 12:21:15;;;;;;;1.50;1.17;;;27.10;84.30;;;;;;5031573;28;20464;-74
2024/03/20 12:23:43;;;;;;;1.50;1.27;;;27.30;85.30;;;;;;5031750;28;20538;-74
2024/03/20 12:26:09;;;;;;;1.90;1.27;;;27.50;83.00;;;;;;5031763;28;20456;-74
2024/03/20 12:28:37;;;;;;;1.20;1.07;;;27.50;82.70;;;;;;5031780;28;20469;-74
2024/03/20 12:31:04;;;;;;;1.17;1.07;;;27.10;81.20;;;;;;5031394;28;20926;-73
2024/03/20 12:33:31;;;;;;;2.77;1.93;;;26.50;86.40;;;;;;5031230;28;20523;-76
2024/03/20 12:35:56;;;;;;;1.50;1.30;;;26.30;87.20;;;;;;5031718;28;20481;-73
2024/03/20 12:38:24;;;;;;;1.10;1.00;;;26.30;86.60;;;;;;5031799;28;20456;-74
2024/03/20 12:40:50;;;;;;;4.20;1.60;;;26.20;86.00;;;;;;5031621;28;20216;-74
2024/03/20 12:43:17;;;;;;;2.03;1.23;;;25.80;87.70;;;;;;5031263;28;20488;-74
2024/03/20 12:45:45;;;;;;;1.93;1.33;;;26.00;85.80;;;;;;5030796;28;20209;-73
2024/03/20 12:48:13;;;;;;;2.27;1.50;;;26.10;87.80;;;;;;5031405;28;20526;-73
2024/03/20 12:50:39;;;;;;;1.60;1.33;;;26.10;87.50;;;;;;5031253;28;20546;-73
2024/03/20 12:53:15;;;;;;;2.10;1.20;;;26.30;86.70;;;;;;5031659;28;20855;-73